Time;durP1;ratioP1;P1;durP2;ratioP2;P2;SDS_P1;SDS_P2;PMS_P1;PMS_P2;Temp;Humidity;BMP_temperature;BMP_pressure;BME280_temperature;BME280_humidity;BME280_pressure;Samples;Min_cycle;Max_cycle;Signal;HPM_P1;HPM_P2
2024/02/10 00:00:19;;;;;;;5.43;3.60;;;12.90;99.90;;;;;;5009316;28;20184;-68
2024/02/10 00:02:49;;;;;;;4.50;3.90;;;12.90;99.90;;;;;;5015296;28;20447;-68
2024/02/10 00:05:15;;;;;;;4.40;3.60;;;12.80;99.90;;;;;;5018972;28;20835;-68
2024/02/10 00:07:46;;;;;;;4.30;3.30;;;12.90;99.90;;;;;;5011927;28;21210;-68
2024/02/10 00:10:12;;;;;;;6.80;3.90;;;12.80;99.90;;;;;;5014826;28;20526;-68
2024/02/10 00:12:40;;;;;;;5.40;3.70;;;12.80;99.90;;;;;;5020016;28;20833;-68
2024/02/10 00:15:07;;;;;;;6.00;3.20;;;12.80;99.90;;;;;;5013991;28;20518;-68
2024/02/10 00:17:33;;;;;;;4.40;3.50;;;12.80;99.90;;;;;;5016427;28;20428;-68
2024/02/10 00:19:59;;;;;;;9.20;4.80;;;12.80;99.90;;;;;;5018235;28;20442;-68
2024/02/10 00:22:25;;;;;;;9.40;3.30;;;12.90;99.90;;;;;;5016341;28;20419;-68
2024/02/10 00:24:51;;;;;;;4.33;3.07;;;12.80;99.90;;;;;;5015073;28;20984;-68
2024/02/10 00:27:17;;;;;;;6.50;3.73;;;12.90;99.90;;;;;;5012041;28;20476;-68
2024/02/10 00:29:46;;;;;;;3.03;2.60;;;12.90;99.90;;;;;;5014740;28;20425;-68
2024/02/10 00:32:13;;;;;;;4.37;3.10;;;12.90;99.90;;;;;;5009470;28;20259;-68
2024/02/10 00:34:41;;;;;;;4.60;3.50;;;12.90;99.90;;;;;;5009514;28;20459;-68
2024/02/10 00:37:10;;;;;;;5.97;3.73;;;12.90;99.90;;;;;;5015819;28;20427;-68
2024/02/10 00:39:36;;;;;;;4.63;3.27;;;12.90;99.90;;;;;;5008839;28;20448;-68
2024/02/10 00:42:01;;;;;;;3.97;3.23;;;12.90;99.90;;;;;;5014642;28;20451;-68
2024/02/10 00:44:30;;;;;;;3.97;3.00;;;12.90;99.90;;;;;;5013829;28;20211;-68
2024/02/10 00:47:00;;;;;;;5.20;3.20;;;12.90;99.90;;;;;;5014791;28;20531;-68
2024/02/10 00:49:26;;;;;;;8.80;3.90;;;12.90;99.90;;;;;;5012262;28;20454;-68
2024/02/10 00:51:57;;;;;;;5.00;2.97;;;12.90;99.90;;;;;;5011828;28;20424;-68
2024/02/10 00:54:27;;;;;;;4.43;3.30;;;12.90;99.90;;;;;;5011119;28;20453;-68
2024/02/10 00:56:53;;;;;;;5.53;3.30;;;12.90;99.90;;;;;;5008693;28;21173;-68
2024/02/10 00:59:21;;;;;;;3.73;2.90;;;13.00;99.90;;;;;;5016784;28;21244;-68
2024/02/10 01:01:47;;;;;;;4.73;3.40;;;13.00;99.90;;;;;;5013246;28;20459;-68
2024/02/10 01:04:12;;;;;;;4.37;2.97;;;13.00;99.90;;;;;;5015012;28;20484;-68
2024/02/10 01:06:40;;;;;;;4.00;3.13;;;13.00;99.90;;;;;;5015787;28;20205;-68
2024/02/10 01:09:07;;;;;;;4.10;3.17;;;13.00;99.90;;;;;;5018614;28;20598;-68
2024/02/10 01:11:33;;;;;;;4.50;3.60;;;13.00;99.90;;;;;;5009615;28;20416;-68
2024/02/10 01:13:59;;;;;;;5.33;3.43;;;13.00;99.90;;;;;;5014897;28;20555;-68
2024/02/10 01:16:25;;;;;;;3.97;3.03;;;13.00;99.90;;;;;;5014580;28;20495;-68
2024/02/10 01:18:51;;;;;;;4.37;3.30;;;13.00;99.90;;;;;;5017827;28;20184;-68
2024/02/10 01:21:19;;;;;;;4.23;3.27;;;13.00;99.90;;;;;;5013929;28;20418;-68
2024/02/10 01:23:46;;;;;;;3.80;3.00;;;13.00;99.90;;;;;;5011238;28;20457;-68
2024/02/10 01:26:13;;;;;;;5.60;3.33;;;13.00;99.90;;;;;;5013193;28;20933;-68
2024/02/10 01:28:44;;;;;;;4.20;3.50;;;13.00;99.90;;;;;;5014591;28;20436;-68
2024/02/10 01:31:12;;;;;;;4.37;3.47;;;13.00;99.90;;;;;;5011292;28;20517;-68
2024/02/10 01:33:41;;;;;;;4.20;3.47;;;13.00;99.90;;;;;;5015722;28;20501;-68
2024/02/10 01:36:09;;;;;;;4.03;3.50;;;13.00;99.90;;;;;;5013201;28;20432;-68
2024/02/10 01:38:42;;;;;;;8.03;3.90;;;13.00;99.90;;;;;;5012337;28;20438;-68
2024/02/10 01:41:09;;;;;;;5.03;3.13;;;13.00;99.90;;;;;;5012642;28;20447;-68
2024/02/10 01:43:38;;;;;;;4.50;4.10;;;13.00;99.90;;;;;;5011253;28;20470;-68
2024/02/10 01:46:15;;;;;;;3.50;3.17;;;13.00;99.90;;;;;;5012221;28;20810;-68
2024/02/10 01:48:42;;;;;;;4.07;3.67;;;13.00;99.90;;;;;;5013251;28;20439;-68
2024/02/10 01:51:10;;;;;;;4.57;3.83;;;13.00;99.90;;;;;;5011169;28;20424;-68
2024/02/10 01:53:38;;;;;;;5.53;4.03;;;13.00;99.90;;;;;;5015417;28;20460;-68
2024/02/10 01:56:04;;;;;;;6.37;3.53;;;13.00;99.90;;;;;;5013949;28;20419;-68
2024/02/10 01:58:33;;;;;;;9.40;3.70;;;13.00;99.90;;;;;;5012879;28;20439;-68
2024/02/10 02:00:59;;;;;;;4.03;3.63;;;13.00;99.90;;;;;;5012626;28;21009;-68
2024/02/10 02:03:26;;;;;;;4.00;3.30;;;13.00;99.90;;;;;;5015149;28;20502;-68
2024/02/10 02:05:53;;;;;;;4.77;3.40;;;13.00;99.90;;;;;;5012062;28;21024;-68
2024/02/10 02:08:20;;;;;;;4.60;3.60;;;13.00;99.90;;;;;;5016729;28;20469;-68
2024/02/10 02:10:46;;;;;;;5.30;3.70;;;13.00;99.90;;;;;;5012155;28;20456;-68
2024/02/10 02:13:12;;;;;;;7.00;4.63;;;13.00;99.90;;;;;;5014082;28;21602;-68
2024/02/10 02:15:39;;;;;;;5.40;4.20;;;13.00;99.90;;;;;;5011027;28;20500;-68
2024/02/10 02:18:09;;;;;;;6.60;4.10;;;13.00;99.90;;;;;;5012278;28;20807;-68
2024/02/10 02:20:35;;;;;;;4.40;3.97;;;13.00;99.90;;;;;;5010915;28;20531;-68
2024/02/10 02:23:03;;;;;;;6.30;3.73;;;13.00;99.90;;;;;;5016052;28;20457;-68
2024/02/10 02:25:30;;;;;;;4.47;4.03;;;13.00;99.90;;;;;;5010488;28;20208;-68
2024/02/10 02:27:57;;;;;;;4.13;3.60;;;13.00;99.90;;;;;;5017255;28;20475;-68
2024/02/10 02:30:23;;;;;;;4.10;3.57;;;13.00;99.90;;;;;;5015056;28;20472;-68
2024/02/10 02:32:50;;;;;;;6.57;3.67;;;13.00;99.90;;;;;;5014012;28;20423;-69
2024/02/10 02:35:16;;;;;;;5.70;4.30;;;13.00;99.90;;;;;;5013394;28;20204;-68
2024/02/10 02:37:42;;;;;;;6.53;4.50;;;13.00;99.90;;;;;;5017665;28;20604;-68
2024/02/10 02:40:12;;;;;;;7.60;4.70;;;13.00;99.90;;;;;;5015977;28;20767;-68
2024/02/10 02:42:38;;;;;;;5.00;3.80;;;13.00;99.90;;;;;;5011467;28;20438;-68
2024/02/10 02:45:10;;;;;;;4.80;3.93;;;13.00;99.90;;;;;;5015753;28;20462;-68
2024/02/10 02:47:36;;;;;;;4.90;4.20;;;12.90;99.90;;;;;;5018306;28;20522;-68
2024/02/10 02:50:09;;;;;;;4.93;3.60;;;13.00;99.90;;;;;;5015857;28;20427;-68
2024/02/10 02:52:37;;;;;;;4.63;4.00;;;13.00;99.90;;;;;;5015113;28;20531;-68
2024/02/10 02:55:04;;;;;;;7.13;4.33;;;13.00;99.90;;;;;;5016055;28;20479;-68
2024/02/10 02:57:31;;;;;;;4.07;3.40;;;12.90;99.90;;;;;;5014009;28;20438;-68
2024/02/10 03:00:00;;;;;;;4.93;4.33;;;12.90;99.90;;;;;;5015883;28;20527;-68
2024/02/10 03:02:26;;;;;;;5.60;4.50;;;12.90;99.90;;;;;;5016154;28;20605;-68
2024/02/10 03:04:52;;;;;;;5.30;4.60;;;12.80;99.90;;;;;;5015508;28;20444;-68
2024/02/10 03:07:17;;;;;;;7.07;4.53;;;12.80;99.90;;;;;;5015006;28;20945;-68
2024/02/10 03:09:44;;;;;;;4.53;3.90;;;12.80;99.90;;;;;;5013804;28;20263;-68
2024/02/10 03:12:11;;;;;;;5.73;5.00;;;12.70;99.90;;;;;;5011379;28;20189;-68
2024/02/10 03:14:39;;;;;;;6.93;5.00;;;12.70;99.90;;;;;;5015513;28;20504;-68
2024/02/10 03:17:07;;;;;;;6.00;4.23;;;12.60;99.90;;;;;;5012196;28;20850;-69
2024/02/10 03:19:36;;;;;;;10.10;4.60;;;12.60;99.90;;;;;;5017354;28;20447;-68
2024/02/10 03:22:05;;;;;;;5.30;4.67;;;12.60;99.90;;;;;;5011618;28;20945;-68
2024/02/10 03:24:32;;;;;;;5.50;4.37;;;12.60;99.90;;;;;;5014402;28;20440;-68
2024/02/10 03:26:58;;;;;;;8.60;4.87;;;12.50;99.90;;;;;;5017084;28;20463;-68
2024/02/10 03:29:24;;;;;;;8.07;5.30;;;12.50;99.90;;;;;;5017508;28;20495;-69
2024/02/10 03:31:49;;;;;;;5.23;4.50;;;12.50;99.90;;;;;;5013543;28;20212;-69
2024/02/10 03:34:15;;;;;;;5.27;4.67;;;12.50;99.90;;;;;;5014923;28;20260;-69
2024/02/10 03:36:41;;;;;;;7.87;5.50;;;12.40;99.90;;;;;;5016010;28;20201;-69
2024/02/10 03:39:07;;;;;;;7.13;4.70;;;12.40;99.90;;;;;;5018036;28;20446;-69
2024/02/10 03:41:33;;;;;;;5.50;4.57;;;12.40;99.90;;;;;;5014300;28;20227;-69
2024/02/10 03:44:00;;;;;;;6.47;5.50;;;12.40;99.90;;;;;;5012597;28;20506;-69
2024/02/10 03:46:26;;;;;;;6.13;5.00;;;12.30;99.90;;;;;;5014329;28;20459;-69
2024/02/10 03:48:53;;;;;;;7.13;5.27;;;12.30;99.90;;;;;;5011075;28;20432;-69
2024/02/10 03:51:18;;;;;;;8.63;5.17;;;12.30;99.90;;;;;;5017959;28;20177;-69
2024/02/10 03:53:44;;;;;;;5.40;4.73;;;12.30;99.90;;;;;;5018096;28;20442;-69
2024/02/10 03:56:10;;;;;;;6.07;4.87;;;12.20;99.90;;;;;;5017275;28;20242;-70
2024/02/10 03:58:41;;;;;;;8.00;5.30;;;12.20;99.90;;;;;;5011256;28;20670;-70
2024/02/10 04:01:13;;;;;;;7.27;5.40;;;12.20;99.90;;;;;;5015568;28;20196;-69
2024/02/10 04:03:42;;;;;;;6.83;5.20;;;12.10;99.90;;;;;;5015404;28;20452;-69
2024/02/10 04:06:09;;;;;;;7.80;4.97;;;12.10;99.90;;;;;;5017711;28;20452;-69
2024/02/10 04:08:36;;;;;;;7.87;5.10;;;12.10;99.90;;;;;;5011878;28;20472;-69
2024/02/10 04:11:05;;;;;;;7.40;6.07;;;12.00;99.90;;;;;;5015143;28;20930;-68
2024/02/10 04:13:33;;;;;;;5.60;5.00;;;12.00;99.90;;;;;;5014585;28;20507;-68
2024/02/10 04:15:58;;;;;;;5.73;5.13;;;12.00;99.90;;;;;;5013852;28;20824;-69
2024/02/10 04:18:27;;;;;;;6.57;4.73;;;12.00;99.90;;;;;;5010888;28;20438;-68
2024/02/10 04:20:54;;;;;;;8.30;5.27;;;11.90;99.90;;;;;;5014402;28;20184;-68
2024/02/10 04:23:20;;;;;;;5.23;4.20;;;11.90;99.90;;;;;;5014789;28;20423;-68
2024/02/10 04:25:45;;;;;;;7.97;5.10;;;11.90;99.90;;;;;;5009208;28;20419;-67
2024/02/10 04:28:11;;;;;;;9.17;4.73;;;11.80;99.90;;;;;;5015009;28;20473;-68
2024/02/10 04:30:36;;;;;;;6.30;4.77;;;11.90;99.90;;;;;;5015371;28;20187;-69
2024/02/10 04:33:04;;;;;;;4.90;4.40;;;11.80;99.90;;;;;;5010218;28;20214;-68
2024/02/10 04:35:29;;;;;;;5.60;4.53;;;11.80;99.90;;;;;;5013492;28;20201;-69
2024/02/10 04:37:55;;;;;;;7.17;4.77;;;11.80;99.90;;;;;;5015297;28;20501;-69
2024/02/10 04:40:24;;;;;;;6.73;3.90;;;11.80;99.90;;;;;;5018360;28;20227;-68
2024/02/10 04:42:53;;;;;;;6.10;4.80;;;11.80;99.90;;;;;;5010607;28;20261;-68
2024/02/10 04:45:26;;;;;;;4.73;3.77;;;11.80;99.90;;;;;;5015053;28;20440;-68
2024/02/10 04:47:53;;;;;;;5.90;4.43;;;11.80;99.90;;;;;;5017677;28;20805;-68
2024/02/10 04:50:22;;;;;;;5.83;3.87;;;11.70;99.90;;;;;;5010230;28;20780;-68
2024/02/10 04:52:47;;;;;;;5.07;4.13;;;11.70;99.90;;;;;;5017573;28;20445;-69
2024/02/10 04:55:18;;;;;;;5.80;4.27;;;11.70;99.90;;;;;;5009067;28;20793;-68
2024/02/10 04:57:44;;;;;;;6.33;4.07;;;11.70;99.90;;;;;;5009013;28;20291;-68
2024/02/10 05:00:18;;;;;;;6.50;4.60;;;11.70;99.90;;;;;;5011286;28;20880;-69
2024/02/10 05:02:44;;;;;;;5.67;4.23;;;11.60;99.90;;;;;;5014464;28;20188;-69
2024/02/10 05:05:11;;;;;;;6.27;3.97;;;11.60;99.90;;;;;;5010772;28;20740;-68
2024/02/10 05:07:56;;;;;;;6.90;4.03;;;11.60;99.90;;;;;;5009533;28;21056;-67
2024/02/10 05:10:22;;;;;;;5.30;4.30;;;11.60;99.90;;;;;;5010995;28;20423;-69
2024/02/10 05:12:49;;;;;;;6.27;4.00;;;11.50;99.90;;;;;;5013690;28;20554;-69
2024/02/10 05:15:18;;;;;;;5.50;4.17;;;11.50;99.90;;;;;;5008992;28;20545;-68
2024/02/10 05:17:51;;;;;;;8.03;4.30;;;11.50;99.90;;;;;;5014350;28;20649;-69
2024/02/10 05:20:21;;;;;;;6.77;4.07;;;11.50;99.90;;;;;;5008984;28;20443;-67
2024/02/10 05:22:48;;;;;;;6.50;3.93;;;11.50;99.90;;;;;;5012439;28;20521;-68
2024/02/10 05:25:14;;;;;;;5.10;3.73;;;11.40;99.90;;;;;;5013193;28;20501;-67
2024/02/10 05:27:44;;;;;;;3.90;3.50;;;11.40;99.90;;;;;;5018368;28;20466;-68
2024/02/10 05:30:14;;;;;;;4.63;3.50;;;11.40;99.90;;;;;;5011933;28;20554;-68
2024/02/10 05:32:44;;;;;;;4.53;4.10;;;11.40;99.90;;;;;;5014138;28;20464;-68
2024/02/10 05:35:14;;;;;;;5.70;3.80;;;11.40;99.90;;;;;;5008919;28;20432;-68
2024/02/10 05:37:40;;;;;;;5.00;3.73;;;11.40;99.90;;;;;;5009866;28;20523;-68
2024/02/10 05:40:09;;;;;;;6.30;3.70;;;11.40;99.90;;;;;;5016762;28;20530;-68
2024/02/10 05:42:38;;;;;;;4.43;3.23;;;11.40;99.90;;;;;;5012088;28;20502;-68
2024/02/10 05:45:07;;;;;;;5.73;4.13;;;11.40;99.90;;;;;;5012528;28;20802;-68
2024/02/10 05:47:36;;;;;;;4.97;4.00;;;11.30;99.90;;;;;;5012478;28;20467;-68
2024/02/10 05:50:11;;;;;;;4.83;3.80;;;11.30;99.90;;;;;;5017264;28;21166;-68
2024/02/10 05:52:41;;;;;;;8.63;4.57;;;11.30;99.90;;;;;;5011118;28;20420;-68
2024/02/10 05:55:20;;;;;;;4.33;3.73;;;11.40;99.90;;;;;;5004896;28;20455;-68
2024/02/10 05:57:50;;;;;;;4.87;4.37;;;11.40;99.90;;;;;;5014181;28;20447;-68
2024/02/10 06:00:17;;;;;;;4.67;3.80;;;11.40;99.90;;;;;;5013357;28;20451;-69
2024/02/10 06:02:43;;;;;;;7.40;4.63;;;11.40;99.90;;;;;;5013779;28;20450;-68
2024/02/10 06:05:10;;;;;;;15.07;5.97;;;11.40;99.90;;;;;;5018599;28;20848;-68
2024/02/10 06:07:40;;;;;;;10.00;4.47;;;11.40;99.90;;;;;;5017370;28;20620;-68
2024/02/10 06:10:09;;;;;;;4.93;4.20;;;11.40;99.90;;;;;;5014420;28;20434;-68
2024/02/10 06:12:58;;;;;;;4.97;4.43;;;11.40;99.90;;;;;;5017820;28;20484;-68
2024/02/10 06:15:25;;;;;;;6.43;4.73;;;11.40;99.90;;;;;;5016250;28;20483;-68
2024/02/10 06:17:54;;;;;;;7.47;4.40;;;11.40;99.90;;;;;;5015070;28;20525;-68
2024/02/10 06:20:23;;;;;;;4.57;4.17;;;11.50;99.90;;;;;;5016630;28;20423;-68
2024/02/10 06:22:53;;;;;;;9.20;4.77;;;11.50;99.90;;;;;;5014330;28;20963;-68
2024/02/10 06:25:24;;;;;;;5.40;4.70;;;11.50;99.90;;;;;;5017871;28;20825;-69
2024/02/10 06:27:54;;;;;;;6.93;5.23;;;11.50;99.90;;;;;;5018908;28;20461;-68
2024/02/10 06:30:21;;;;;;;7.40;4.80;;;11.50;99.90;;;;;;5017217;28;20430;-68
2024/02/10 06:32:47;;;;;;;4.93;4.17;;;11.50;99.90;;;;;;5016016;28;20428;-68
2024/02/10 06:35:14;;;;;;;8.47;5.30;;;11.50;99.90;;;;;;5032550;28;20462;-68
2024/02/10 06:37:47;;;;;;;7.33;4.80;;;11.60;99.90;;;;;;5015693;28;20420;-68
2024/02/10 06:40:14;;;;;;;4.90;4.40;;;11.60;99.90;;;;;;5011027;28;20424;-68
2024/02/10 06:42:48;;;;;;;5.53;4.70;;;11.60;99.90;;;;;;5011287;28;21150;-68
2024/02/10 06:45:15;;;;;;;4.33;3.70;;;11.60;99.90;;;;;;5018038;28;20917;-68
2024/02/10 06:47:42;;;;;;;5.37;4.20;;;11.60;99.90;;;;;;5016648;28;20503;-68
2024/02/10 06:50:08;;;;;;;6.63;3.73;;;11.70;99.90;;;;;;5016878;28;20448;-68
2024/02/10 06:52:37;;;;;;;5.97;4.30;;;11.70;99.90;;;;;;5018150;28;20443;-68
2024/02/10 06:55:12;;;;;;;4.50;3.70;;;11.70;99.90;;;;;;5012139;28;20340;-68
2024/02/10 06:57:41;;;;;;;5.30;3.30;;;11.70;99.90;;;;;;5012304;28;20450;-68
2024/02/10 07:00:15;;;;;;;3.97;3.20;;;11.70;99.90;;;;;;5015329;28;20426;-68
2024/02/10 07:02:44;;;;;;;4.20;3.40;;;11.70;99.90;;;;;;5014616;28;20450;-68
2024/02/10 07:05:12;;;;;;;3.73;2.87;;;11.70;99.90;;;;;;5012592;28;20537;-68
2024/02/10 07:07:39;;;;;;;5.00;2.87;;;11.80;99.90;;;;;;5015476;28;20474;-68
2024/02/10 07:10:12;;;;;;;4.30;3.37;;;11.80;99.90;;;;;;5009547;28;20436;-68
2024/02/10 07:12:37;;;;;;;3.83;3.13;;;11.80;99.90;;;;;;5015137;28;20431;-68
2024/02/10 07:15:03;;;;;;;4.67;2.73;;;11.80;99.90;;;;;;5016146;28;20443;-68
2024/02/10 07:17:28;;;;;;;4.33;2.80;;;11.80;99.90;;;;;;5019411;28;20208;-69
2024/02/10 07:19:54;;;;;;;3.77;2.70;;;11.80;99.90;;;;;;5021109;28;20188;-69
2024/02/10 07:22:20;;;;;;;3.63;3.00;;;11.80;99.90;;;;;;5018782;28;20278;-68
2024/02/10 07:24:46;;;;;;;3.60;3.03;;;11.80;99.90;;;;;;5016416;28;20902;-69
2024/02/10 07:27:17;;;;;;;3.43;2.97;;;11.80;99.90;;;;;;5016145;28;20291;-68
2024/02/10 07:29:46;;;;;;;4.83;2.90;;;11.80;99.90;;;;;;5016275;28;20934;-68
2024/02/10 07:32:14;;;;;;;8.13;2.90;;;11.80;99.90;;;;;;5016136;28;20415;-68
2024/02/10 07:34:41;;;;;;;3.23;2.40;;;11.80;99.90;;;;;;5018080;28;20450;-68
2024/02/10 07:37:09;;;;;;;3.30;2.67;;;11.90;99.90;;;;;;5014571;28;20498;-68
2024/02/10 07:39:34;;;;;;;3.60;2.90;;;11.90;99.90;;;;;;5021473;28;20415;-69
2024/02/10 07:42:01;;;;;;;4.67;3.10;;;11.90;99.90;;;;;;5013788;28;20510;-68
2024/02/10 07:44:27;;;;;;;4.17;3.03;;;11.90;99.90;;;;;;5014909;28;20212;-69
2024/02/10 07:46:55;;;;;;;3.90;3.23;;;12.00;99.90;;;;;;5020577;28;20471;-69
2024/02/10 07:49:21;;;;;;;3.93;3.00;;;12.00;99.90;;;;;;5010668;28;20500;-68
2024/02/10 07:51:47;;;;;;;3.03;2.63;;;12.10;99.90;;;;;;5022974;28;20993;-68
2024/02/10 07:54:13;;;;;;;4.23;2.90;;;12.10;99.90;;;;;;5011944;28;20451;-68
2024/02/10 07:56:41;;;;;;;4.70;3.03;;;12.10;99.90;;;;;;5000819;28;20431;-69
2024/02/10 07:59:07;;;;;;;3.90;2.63;;;12.10;99.90;;;;;;5009188;28;20188;-69
2024/02/10 08:01:32;;;;;;;2.90;2.40;;;12.20;99.90;;;;;;5017338;28;20414;-69
2024/02/10 08:03:58;;;;;;;4.10;2.30;;;12.20;99.90;;;;;;5014795;28;20205;-69
2024/02/10 08:06:26;;;;;;;3.23;2.50;;;12.20;99.90;;;;;;5011877;28;20257;-69
2024/02/10 08:08:57;;;;;;;3.10;2.20;;;12.30;99.90;;;;;;5018237;28;20176;-68
2024/02/10 08:11:24;;;;;;;4.27;2.70;;;12.30;99.90;;;;;;5015440;28;20455;-68
2024/02/10 08:13:51;;;;;;;2.73;2.30;;;12.30;99.90;;;;;;5012142;28;20451;-68
2024/02/10 08:16:18;;;;;;;4.43;3.50;;;12.30;99.90;;;;;;5013485;28;21049;-68
2024/02/10 08:18:44;;;;;;;3.30;2.93;;;12.30;99.90;;;;;;5016841;28;20530;-69
2024/02/10 08:21:10;;;;;;;5.23;2.80;;;12.30;99.90;;;;;;5011064;28;20521;-68
2024/02/10 08:23:38;;;;;;;3.40;2.90;;;12.40;99.90;;;;;;5013406;28;20212;-69
2024/02/10 08:26:05;;;;;;;4.33;3.40;;;12.40;99.90;;;;;;5017882;28;20489;-69
2024/02/10 08:28:31;;;;;;;3.60;2.93;;;12.40;99.90;;;;;;5017660;28;20569;-69
2024/02/10 08:30:57;;;;;;;4.00;3.10;;;12.40;99.90;;;;;;5015735;28;20532;-69
2024/02/10 08:33:23;;;;;;;4.40;3.40;;;12.40;99.90;;;;;;5015874;28;20180;-69
2024/02/10 08:35:50;;;;;;;10.83;3.80;;;12.40;99.90;;;;;;5018932;28;20404;-69
2024/02/10 08:38:16;;;;;;;6.73;4.33;;;12.50;99.90;;;;;;5016373;28;20511;-69
2024/02/10 08:40:42;;;;;;;24.87;6.47;;;12.50;99.90;;;;;;5017153;28;20859;-69
2024/02/10 08:43:10;;;;;;;13.10;6.20;;;12.50;99.90;;;;;;5016062;28;20192;-69
2024/02/10 08:45:36;;;;;;;23.60;6.40;;;12.50;99.90;;;;;;5014750;28;20189;-69
2024/02/10 08:48:01;;;;;;;9.93;5.07;;;12.50;99.90;;;;;;5016494;28;20475;-69
2024/02/10 08:50:27;;;;;;;6.13;4.87;;;12.50;99.90;;;;;;5015311;28;20193;-69
2024/02/10 08:52:56;;;;;;;8.47;5.30;;;12.50;99.90;;;;;;5030729;28;20532;-68
2024/02/10 08:55:25;;;;;;;12.70;5.37;;;12.60;99.90;;;;;;5016949;28;20298;-70
2024/02/10 08:57:55;;;;;;;8.93;5.80;;;12.60;99.90;;;;;;5020620;28;20431;-68
2024/02/10 09:00:21;;;;;;;10.37;4.80;;;12.60;99.90;;;;;;5017714;28;20833;-69
2024/02/10 09:02:49;;;;;;;12.97;5.87;;;12.60;99.90;;;;;;5018235;28;20435;-69
2024/02/10 09:05:15;;;;;;;6.00;4.23;;;12.60;99.90;;;;;;5017999;28;20446;-69
2024/02/10 09:07:40;;;;;;;8.43;4.57;;;12.70;99.90;;;;;;5017714;28;20463;-69
2024/02/10 09:10:08;;;;;;;10.60;4.77;;;12.70;99.90;;;;;;5020856;28;20238;-69
2024/02/10 09:12:34;;;;;;;8.60;4.27;;;12.80;99.90;;;;;;5012556;28;20181;-69
2024/02/10 09:15:00;;;;;;;8.47;4.83;;;12.80;99.90;;;;;;5017808;28;20447;-69
2024/02/10 09:17:25;;;;;;;6.40;5.07;;;12.80;99.90;;;;;;5014214;28;20446;-70
2024/02/10 09:19:51;;;;;;;5.40;4.37;;;12.90;99.90;;;;;;5019324;28;20307;-68
2024/02/10 09:22:17;;;;;;;12.03;5.00;;;12.90;99.90;;;;;;5019891;28;20184;-68
2024/02/10 09:24:42;;;;;;;8.50;4.70;;;13.00;99.90;;;;;;5017140;28;20732;-69
2024/02/10 09:27:11;;;;;;;5.00;4.43;;;13.00;99.90;;;;;;5013660;28;20233;-68
2024/02/10 09:29:37;;;;;;;7.23;4.50;;;13.10;99.90;;;;;;5015181;28;20181;-68
2024/02/10 09:32:02;;;;;;;6.77;5.53;;;13.10;99.90;;;;;;5012279;28;20437;-68
2024/02/10 09:34:28;;;;;;;6.23;4.40;;;13.10;99.90;;;;;;5014872;28;20534;-68
2024/02/10 09:36:58;;;;;;;6.20;4.67;;;13.20;99.90;;;;;;5021837;28;20442;-68
2024/02/10 09:39:23;;;;;;;6.27;5.30;;;13.20;99.90;;;;;;5019946;28;20714;-68
2024/02/10 09:41:51;;;;;;;6.00;5.40;;;13.20;99.90;;;;;;5022377;28;20419;-68
2024/02/10 09:44:19;;;;;;;5.73;4.40;;;13.20;99.90;;;;;;5010361;28;20610;-69
2024/02/10 09:46:50;;;;;;;6.30;4.30;;;13.30;99.90;;;;;;5024611;28;20442;-68
2024/02/10 09:49:18;;;;;;;6.20;5.00;;;13.30;99.90;;;;;;5022237;28;20984;-69
2024/02/10 09:51:44;;;;;;;5.77;5.07;;;13.30;99.90;;;;;;5020112;28;20435;-68
2024/02/10 09:54:13;;;;;;;8.03;5.03;;;13.30;99.90;;;;;;5028065;28;20437;-69
2024/02/10 09:56:39;;;;;;;7.00;5.53;;;13.30;99.90;;;;;;5025421;28;20456;-68
2024/02/10 09:59:17;;;;;;;7.07;4.67;;;13.30;99.90;;;;;;5022746;28;20423;-68
2024/02/10 10:01:43;;;;;;;7.37;5.77;;;13.40;99.90;;;;;;5019443;28;20179;-68
2024/02/10 10:04:12;;;;;;;28.13;8.20;;;13.30;99.90;;;;;;5019303;28;20431;-69
2024/02/10 10:06:43;;;;;;;9.47;6.50;;;13.40;99.90;;;;;;5024456;28;20604;-69
2024/02/10 10:09:16;;;;;;;10.60;6.90;;;13.40;99.90;;;;;;5018577;28;20435;-68
2024/02/10 10:11:44;;;;;;;9.57;6.20;;;13.40;99.90;;;;;;5023530;28;20484;-69
2024/02/10 10:14:10;;;;;;;7.20;6.40;;;13.50;99.90;;;;;;5015627;28;20435;-68
2024/02/10 10:16:35;;;;;;;7.17;6.40;;;13.50;99.90;;;;;;5019627;28;20439;-68
2024/02/10 10:19:02;;;;;;;7.80;7.00;;;13.50;99.90;;;;;;5023108;28;20894;-68
2024/02/10 10:21:30;;;;;;;8.90;7.27;;;13.60;99.90;;;;;;5011331;28;20184;-68
2024/02/10 10:23:59;;;;;;;8.57;7.50;;;13.60;99.90;;;;;;5019518;28;20896;-68
2024/02/10 10:26:25;;;;;;;8.83;7.93;;;13.60;99.90;;;;;;5019390;28;20517;-68
2024/02/10 10:28:50;;;;;;;8.90;7.73;;;13.60;99.90;;;;;;5019572;28;20473;-69
2024/02/10 10:31:17;;;;;;;9.63;8.73;;;13.70;99.90;;;;;;5021676;28;20443;-68
2024/02/10 10:33:46;;;;;;;9.23;8.27;;;13.70;99.90;;;;;;5020112;28;20654;-68
2024/02/10 10:36:14;;;;;;;8.80;7.80;;;13.70;99.90;;;;;;5021520;28;20432;-68
2024/02/10 10:38:41;;;;;;;9.50;8.50;;;13.80;99.90;;;;;;5023129;28;21160;-68
2024/02/10 10:41:08;;;;;;;10.17;8.53;;;13.80;99.90;;;;;;5021360;28;20467;-69
2024/02/10 10:43:36;;;;;;;10.83;8.10;;;13.80;99.90;;;;;;5015126;28;20904;-69
2024/02/10 10:46:02;;;;;;;10.60;9.10;;;13.80;99.90;;;;;;5015141;28;20527;-69
2024/02/10 10:48:28;;;;;;;11.40;9.70;;;13.80;99.90;;;;;;5013702;28;20507;-68
2024/02/10 10:50:57;;;;;;;9.37;8.00;;;13.80;99.90;;;;;;5023318;28;20451;-69
2024/02/10 10:53:27;;;;;;;9.03;8.13;;;13.80;99.90;;;;;;5016759;28;20277;-68
2024/02/10 10:56:01;;;;;;;9.20;8.30;;;13.80;99.90;;;;;;5018625;28;20773;-69
2024/02/10 10:58:32;;;;;;;15.20;8.43;;;13.80;99.90;;;;;;5014217;28;20422;-69
2024/02/10 11:00:59;;;;;;;12.70;9.67;;;13.90;99.90;;;;;;5015791;28;20831;-69
2024/02/10 11:03:25;;;;;;;10.67;8.10;;;13.90;99.90;;;;;;5016227;28;20861;-68
2024/02/10 11:05:51;;;;;;;11.27;10.13;;;13.90;99.90;;;;;;5015308;28;20834;-69
2024/02/10 11:08:26;;;;;;;11.70;10.20;;;14.00;99.90;;;;;;5014350;28;20460;-69
2024/02/10 11:11:00;;;;;;;11.77;9.87;;;14.10;99.90;;;;;;5018148;28;20234;-69
2024/02/10 11:13:28;;;;;;;15.23;11.03;;;14.10;99.90;;;;;;5018580;28;20431;-69
2024/02/10 11:16:05;;;;;;;11.60;10.40;;;14.10;99.90;;;;;;5021276;28;20522;-68
2024/02/10 11:18:34;;;;;;;10.57;9.40;;;14.10;99.90;;;;;;5014257;28;20433;-68
2024/02/10 11:21:26;;;;;;;13.40;10.90;;;14.10;99.90;;;;;;5017159;28;20444;-69
2024/02/10 11:23:56;;;;;;;10.47;9.37;;;14.10;99.90;;;;;;5017357;28;20467;-69
2024/02/10 11:26:26;;;;;;;14.47;10.80;;;14.10;99.90;;;;;;5014877;28;20423;-69
2024/02/10 11:28:59;;;;;;;11.33;10.03;;;14.10;99.90;;;;;;5016835;28;20989;-69
2024/02/10 11:31:25;;;;;;;12.13;10.77;;;14.20;99.90;;;;;;5016983;28;20447;-69
2024/02/10 11:33:51;;;;;;;13.80;10.83;;;14.20;99.90;;;;;;5017717;28;20456;-69
2024/02/10 11:36:19;;;;;;;12.50;9.97;;;14.20;99.90;;;;;;5014545;28;20431;-69
2024/02/10 11:38:45;;;;;;;11.67;10.40;;;14.20;99.90;;;;;;5017703;28;20656;-68
2024/02/10 11:41:12;;;;;;;13.03;11.40;;;14.20;99.90;;;;;;5014884;28;20454;-68
2024/02/10 11:43:37;;;;;;;13.00;11.10;;;14.20;99.90;;;;;;5018165;28;20910;-68
2024/02/10 11:46:03;;;;;;;14.27;11.43;;;14.20;99.90;;;;;;5015973;28;20512;-70
2024/02/10 11:48:30;;;;;;;13.30;11.60;;;14.20;99.90;;;;;;5012275;28;20212;-69
2024/02/10 11:50:59;;;;;;;15.37;13.70;;;14.30;99.90;;;;;;5013655;28;20651;-69
2024/02/10 11:53:25;;;;;;;16.90;14.50;;;14.30;99.90;;;;;;5013100;28;20820;-68
2024/02/10 11:55:51;;;;;;;17.90;14.50;;;14.30;99.90;;;;;;5016346;28;20526;-70
2024/02/10 11:58:18;;;;;;;13.50;11.90;;;14.40;99.90;;;;;;5013251;28;20428;-70
2024/02/10 12:00:45;;;;;;;15.57;12.37;;;14.50;99.90;;;;;;5017735;28;20185;-69
2024/02/10 12:03:15;;;;;;;13.70;12.00;;;14.50;99.90;;;;;;5012836;28;20427;-69
2024/02/10 12:05:41;;;;;;;14.73;12.07;;;14.60;99.90;;;;;;5016163;28;20423;-70
2024/02/10 12:08:07;;;;;;;16.00;12.93;;;14.70;99.90;;;;;;5018139;28;20470;-69
2024/02/10 12:10:39;;;;;;;12.47;11.13;;;14.80;99.90;;;;;;5013300;28;20416;-69
2024/02/10 12:13:09;;;;;;;13.93;12.10;;;14.90;99.90;;;;;;5013235;28;20439;-71
2024/02/10 12:15:35;;;;;;;13.93;12.27;;;15.20;99.90;;;;;;5015571;28;20481;-69
2024/02/10 12:18:01;;;;;;;11.17;9.97;;;15.40;99.90;;;;;;5019005;28;20461;-70
2024/02/10 12:20:29;;;;;;;14.20;11.23;;;15.50;99.90;;;;;;5012673;28;20442;-70
2024/02/10 12:22:55;;;;;;;12.30;11.00;;;15.70;99.90;;;;;;5017571;28;20497;-70
2024/02/10 12:25:22;;;;;;;12.10;10.80;;;15.80;99.90;;;;;;5011499;28;20636;-69
2024/02/10 12:27:50;;;;;;;13.30;11.03;;;16.00;99.90;;;;;;5015738;28;20208;-69
2024/02/10 12:30:16;;;;;;;16.17;13.00;;;16.20;99.90;;;;;;5015545;28;20418;-70
2024/02/10 12:32:41;;;;;;;12.13;10.83;;;16.20;99.90;;;;;;5014857;28;20976;-70
2024/02/10 12:35:14;;;;;;;14.77;11.80;;;16.30;99.90;;;;;;5012337;28;20204;-70
2024/02/10 12:37:39;;;;;;;14.90;11.00;;;16.30;99.90;;;;;;5011811;28;20185;-68
2024/02/10 12:40:10;;;;;;;13.60;11.60;;;16.30;99.90;;;;;;5014847;28;20502;-69
2024/02/10 12:42:36;;;;;;;16.13;10.90;;;16.30;99.90;;;;;;5020234;28;20223;-69
2024/02/10 12:45:04;;;;;;;11.77;10.57;;;16.30;99.90;;;;;;5014231;28;20967;-69